< Cyclone 197608 1976 Season Cyclone 197610 >
Cyclone 197609 (BETH)
General InformationDetailed Track InformationTrack Information on Google Maps || ResourceGoogle EarthGE AnimationAtom FeedGeoJSON
Detalied Best Track Wind (Time Zone = UTC)
Year Month Day Hour Lat. Long. Wind (kt) Gust (kt) Direc. of Major Storm Axis Radius of Major Storm Axis (nm) Radius of Minor Storm Axis (nm) Direc. of Major Gale Axis Radius of Major Gale Axis (nm) Radius of Minor Gale Axis (nm) Image
1976 2 13 17 -16.4 149.9 25 45 symmetric - - symmetric - - --
1976 2 13 23 -15.9 150.3 25 45 symmetric - - symmetric - - --
1976 2 14 05 -15.8 150.0 25 45 symmetric - - symmetric - - --
1976 2 14 11 -16.0 149.6 25 45 symmetric - - symmetric - - --
1976 2 14 17 -16.0 150.0 25 45 symmetric - - symmetric - - --
1976 2 14 23 -15.7 150.1 25 45 symmetric - - symmetric - - --
1976 2 15 05 -15.4 149.9 30 45 symmetric - - symmetric - - --
1976 2 15 11 -15.1 149.5 35 50 symmetric - - symmetric - - --
1976 2 15 17 -14.9 149.1 35 50 symmetric - - symmetric - - --
1976 2 15 23 -14.5 148.5 35 50 symmetric - - symmetric - - --
1976 2 16 05 -13.9 148.3 40 55 symmetric - - symmetric - - --
1976 2 16 11 -13.6 148.7 40 55 symmetric - - symmetric - - --
1976 2 16 17 -13.9 149.3 45 65 symmetric - - symmetric - - --
1976 2 16 23 -14.2 150.0 50 70 symmetric - - symmetric - - --
1976 2 17 02 -14.5 150.5 50 70 symmetric - - symmetric - - --
1976 2 17 05 -14.7 151.3 55 75 symmetric - - symmetric - - --
1976 2 17 11 -14.9 153.0 60 85 symmetric - - symmetric - - --
1976 2 17 17 -15.4 155.0 65 90 symmetric - - symmetric - - --
1976 2 17 23 -16.0 156.9 70 100 symmetric - - symmetric - - --
1976 2 18 05 -16.6 158.8 70 100 symmetric - - symmetric - - --
1976 2 18 11 -17.3 160.0 70 100 symmetric - - symmetric - - --
1976 2 18 17 -18.3 160.0 65 90 symmetric - - symmetric - - --
1976 2 18 23 -19.1 159.7 55 75 symmetric - - symmetric - - --
1976 2 19 05 -19.6 159.5 55 75 symmetric - - symmetric - - --
1976 2 19 11 -20.2 159.4 55 75 symmetric - - symmetric - - --
1976 2 19 14 -20.7 158.9 55 75 symmetric - - symmetric - - --
1976 2 19 17 -21.5 158.7 55 75 symmetric - - symmetric - - --
1976 2 19 23 -23.0 157.6 55 75 symmetric - - symmetric - - --
1976 2 20 05 -23.1 156.7 50 70 symmetric - - symmetric - - --
1976 2 20 11 -23.2 155.9 50 70 symmetric - - symmetric - - --
1976 2 20 17 -23.4 155.0 50 70 symmetric - - symmetric - - --
1976 2 20 23 -23.6 154.3 50 70 symmetric - - symmetric - - --
1976 2 21 05 -23.7 153.8 50 70 symmetric - - symmetric - - --
1976 2 21 11 -23.8 153.3 50 70 symmetric - - symmetric - - --
1976 2 21 17 -24.1 152.9 50 70 symmetric - - symmetric - - --
1976 2 21 20 -24.4 152.6 50 70 symmetric - - symmetric - - --
1976 2 21 23 -24.7 152.2 45 65 symmetric - - symmetric - - --
1976 2 22 05 -24.8 151.3 25 45 symmetric - - symmetric - - --
< Cyclone 197608 1976 Season Cyclone 197610 >

Help